Time;durP1;ratioP1;P1;durP2;ratioP2;P2;SDS_P1;SDS_P2;PMS_P1;PMS_P2;Temp;Humidity;BMP_temperature;BMP_pressure;BME280_temperature;BME280_humidity;BME280_pressure;Samples;Min_cycle;Max_cycle;Signal;HPM_P1;HPM_P2
2023/03/02 00:01:53;;;;;;;16.40;11.20;;;;;;;2.27;84.91;102601.28;5039088;28;20667;-72
2023/03/02 00:04:32;;;;;;;16.83;11.45;;;;;;;2.24;84.79;102598.66;5039262;28;20136;-72
2023/03/02 00:07:09;;;;;;;17.45;12.40;;;;;;;2.19;84.75;102600.28;5039870;28;20228;-72
2023/03/02 00:09:36;;;;;;;18.58;12.13;;;;;;;2.17;84.96;102599.38;5039162;28;20264;-72
2023/03/02 00:12:03;;;;;;;22.00;12.70;;;;;;;2.15;85.03;102594.16;5039824;28;20029;-72
2023/03/02 00:14:29;;;;;;;20.08;11.90;;;;;;;2.15;85.16;102594.16;5039177;28;20033;-72
2023/03/02 00:16:54;;;;;;;18.77;11.88;;;;;;;2.17;85.54;102599.38;5039414;28;20363;-72
2023/03/02 00:19:20;;;;;;;20.70;14.02;;;;;;;2.17;85.73;102592.47;5038781;28;20087;-72
2023/03/02 00:21:45;;;;;;;29.02;17.65;;;;;;;2.15;85.87;102594.16;5039699;28;20037;-72
2023/03/02 00:24:11;;;;;;;20.58;14.27;;;;;;;2.15;86.08;102590.69;5039262;28;20083;-72
2023/03/02 00:26:36;;;;;;;23.27;14.32;;;;;;;2.16;86.52;102589.84;5038363;28;20045;-72
2023/03/02 00:29:02;;;;;;;20.70;13.63;;;;;;;2.18;86.38;102590.75;5039251;28;20037;-72
2023/03/02 00:31:28;;;;;;;22.75;14.10;;;;;;;2.20;86.53;102587.38;5038799;28;20040;-72
2023/03/02 00:33:53;;;;;;;21.25;14.07;;;;;;;2.21;86.66;102583.06;5039101;28;20237;-72
2023/03/02 00:36:20;;;;;;;24.67;14.50;;;;;;;2.21;86.95;102581.34;5038511;28;20090;-72
2023/03/02 00:38:46;;;;;;;23.15;14.00;;;;;;;2.22;86.98;102579.63;5039072;28;20048;-72
2023/03/02 00:41:14;;;;;;;21.10;13.77;;;;;;;2.23;87.16;102579.66;5038661;28;20049;-72
2023/03/02 00:43:40;;;;;;;26.25;15.05;;;;;;;2.25;87.49;102577.13;5038636;28;20404;-72
2023/03/02 00:46:16;;;;;;;21.70;14.85;;;;;;;2.26;87.43;102577.16;5038896;28;20041;-72
2023/03/02 00:48:42;;;;;;;21.13;13.98;;;;;;;2.27;87.71;102576.34;5038967;28;20324;-72
2023/03/02 00:51:07;;;;;;;21.80;14.05;;;;;;;2.27;87.79;102567.69;5038970;28;20036;-72
2023/03/02 00:53:34;;;;;;;22.10;14.45;;;;;;;2.28;87.90;102564.28;5038387;28;20044;-72
2023/03/02 00:56:00;;;;;;;23.00;14.65;;;;;;;2.28;87.94;102572.91;5038885;28;20088;-72
2023/03/02 00:58:29;;;;;;;23.50;15.52;;;;;;;2.28;88.02;102567.72;5038142;28;20355;-72
2023/03/02 01:00:55;;;;;;;26.55;16.00;;;;;;;2.28;88.21;102564.28;5038532;28;20029;-72
2023/03/02 01:03:20;;;;;;;22.50;13.98;;;;;;;2.27;88.38;102567.69;5037971;28;20041;-72
2023/03/02 01:05:46;;;;;;;22.77;15.02;;;;;;;2.28;88.50;102570.31;5038683;28;20364;-72
2023/03/02 01:08:11;;;;;;;23.50;14.85;;;;;;;2.28;88.68;102570.31;5038778;28;20123;-72
2023/03/02 01:10:37;;;;;;;26.33;15.60;;;;;;;2.29;88.69;102572.06;5037866;28;20048;-72
2023/03/02 01:13:03;;;;;;;27.05;16.73;;;;;;;2.28;88.67;102562.56;5038841;28;20025;-72
2023/03/02 01:15:28;;;;;;;25.52;16.70;;;;;;;2.28;88.99;102562.56;5037907;28;20029;-72
2023/03/02 01:17:54;;;;;;;37.45;23.08;;;;;;;2.27;88.99;102562.50;5038688;28;20044;-72
2023/03/02 01:20:19;;;;;;;27.42;17.73;;;;;;;2.24;89.05;102575.41;5037971;28;20355;-72
2023/03/02 01:22:45;;;;;;;28.08;18.05;;;;;;;2.22;88.98;102569.28;5038204;28;20029;-72
2023/03/02 01:25:12;;;;;;;30.60;18.13;;;;;;;2.21;89.16;102572.75;5037990;28;20038;-72
2023/03/02 01:27:38;;;;;;;26.95;17.98;;;;;;;2.19;89.14;102574.41;5037951;28;20105;-72
2023/03/02 01:30:04;;;;;;;29.70;18.02;;;;;;;2.18;89.46;102577.81;5038186;28;20045;-72
2023/03/02 01:32:30;;;;;;;33.47;20.38;;;;;;;2.15;89.25;102575.16;5037633;28;20033;-72
2023/03/02 01:34:55;;;;;;;35.38;20.83;;;;;;;2.12;89.40;102576.00;5038147;28;20045;-72
2023/03/02 01:37:21;;;;;;;31.83;19.20;;;;;;;2.12;89.54;102581.16;5037593;28;20384;-72
2023/03/02 01:39:47;;;;;;;30.67;18.88;;;;;;;2.09;89.76;102575.91;5037786;28;20021;-72
2023/03/02 01:42:13;;;;;;;33.78;19.70;;;;;;;2.07;89.87;102569.84;5037946;28;20124;-72
2023/03/02 01:44:45;;;;;;;29.45;17.50;;;;;;;2.05;90.14;102569.78;5037395;28;20056;-72
2023/03/02 01:47:29;;;;;;;29.95;18.05;;;;;;;2.04;90.00;102562.03;5038010;28;20036;-72
2023/03/02 01:50:03;;;;;;;31.83;20.20;;;;;;;2.00;89.90;102563.69;5038103;28;20048;-72
2023/03/02 01:52:32;;;;;;;32.08;19.83;;;;;;;1.98;89.92;102562.75;5037442;28;20025;-72
2023/03/02 01:54:59;;;;;;;;;;;;;;;1.97;90.11;102558.44;5038211;28;20210;-72
2023/03/02 01:57:30;;;;;;;28.55;17.95;;;;;;;1.97;90.08;102563.59;5037247;28;19954;-72
2023/03/02 02:00:07;;;;;;;30.23;18.20;;;;;;;1.98;90.23;102554.13;5037939;28;20037;-72
2023/03/02 02:05:02;;;;;;;34.85;19.13;;;;;;;1.98;90.50;102547.25;5035588;28;20308;-72
2023/03/02 02:07:28;;;;;;;29.48;18.75;;;;;;;1.95;90.42;102548.88;5038593;28;20035;-72
2023/03/02 02:09:55;;;;;;;33.28;18.67;;;;;;;1.95;90.61;102554.03;5037453;28;20249;-72
2023/03/02 02:12:22;;;;;;;29.33;17.50;;;;;;;1.95;90.71;102546.28;5037345;28;20281;-72
2023/03/02 02:14:50;;;;;;;28.17;17.33;;;;;;;1.95;90.81;102549.78;5037934;28;20079;-72
2023/03/02 02:17:18;;;;;;;32.13;17.73;;;;;;;1.97;90.86;102545.50;5037276;28;20045;-72
2023/03/02 02:19:59;;;;;;;28.45;17.23;;;;;;;1.97;90.93;102550.69;5038006;28;20104;-72
2023/03/02 02:22:59;;;;;;;31.08;16.90;;;;;;;1.97;90.87;102545.50;5036669;28;20295;-72
2023/03/02 02:25:38;;;;;;;27.17;16.42;;;;;;;1.99;90.91;102537.78;5036905;28;20356;-72
2023/03/02 02:28:07;;;;;;;;;;;;;;;1.99;91.03;102535.22;5038069;28;20057;-72
2023/03/02 02:30:35;;;;;;;27.60;15.80;;;;;;;1.99;90.98;102536.06;5037011;28;19920;-72
2023/03/02 02:33:01;;;;;;;27.65;15.73;;;;;;;1.99;90.96;102530.91;5037820;28;20049;-72
2023/03/02 02:35:28;;;;;;;26.48;14.93;;;;;;;1.99;91.17;102530.91;5037203;28;20063;-72
2023/03/02 02:38:01;;;;;;;27.42;15.57;;;;;;;2.01;91.21;102533.53;5037528;28;20095;-72
2023/03/02 02:40:39;;;;;;;27.90;15.30;;;;;;;2.01;91.18;102530.94;5036919;28;20363;-72
2023/03/02 02:43:05;;;;;;;28.42;15.52;;;;;;;2.01;91.16;102528.38;5037197;28;20053;-72
2023/03/02 02:45:31;;;;;;;25.92;15.48;;;;;;;1.99;91.06;102522.28;5036757;28;20041;-72
2023/03/02 02:47:57;;;;;;;38.60;20.50;;;;;;;1.93;90.93;102525.63;5037380;28;20068;-72
2023/03/02 02:50:31;;;;;;;34.15;19.00;;;;;;;1.90;90.84;102522.97;5036740;28;20041;-72
2023/03/02 02:53:01;;;;;;;37.80;20.10;;;;;;;1.85;90.90;102524.56;5037024;28;20032;-72
2023/03/02 02:55:28;;;;;;;34.88;19.15;;;;;;;1.82;91.08;102524.47;5036403;28;20041;-72
2023/03/02 02:57:56;;;;;;;37.05;18.88;;;;;;;1.80;91.39;102523.56;5037243;28;20057;-72
2023/03/02 03:00:22;;;;;;;38.67;21.00;;;;;;;1.78;91.41;102520.09;5036606;28;20136;-72
2023/03/02 03:02:58;;;;;;;35.88;19.02;;;;;;;1.75;91.64;102520.91;5036956;28;20242;-72
2023/03/02 03:05:24;;;;;;;35.75;19.42;;;;;;;1.74;91.64;102519.16;5024674;28;20033;-72
2023/03/02 03:07:49;;;;;;;39.90;21.80;;;;;;;1.68;91.69;102517.31;5017943;28;20256;-72
2023/03/02 03:10:25;;;;;;;36.03;19.85;;;;;;;1.64;91.67;102512.91;5016820;28;20064;-72
2023/03/02 03:12:51;;;;;;;38.20;20.25;;;;;;;1.66;92.03;102510.38;5017462;28;20244;-72
2023/03/02 03:15:17;;;;;;;37.05;20.58;;;;;;;1.65;92.09;102509.47;5017073;28;20125;-72
2023/03/02 03:17:55;;;;;;;38.05;20.80;;;;;;;1.65;92.15;102503.44;5035192;28;20261;-70
2023/03/02 03:20:23;;;;;;;37.08;19.27;;;;;;;1.64;92.37;102504.28;5024082;28;20080;-70
2023/03/02 03:22:49;;;;;;;37.90;20.50;;;;;;;1.64;92.22;102512.03;5021546;28;20356;-72
2023/03/02 03:25:14;;;;;;;31.95;18.40;;;;;;;1.64;92.51;102512.91;5020254;28;20053;-72
2023/03/02 03:27:43;;;;;;;38.10;20.05;;;;;;;1.64;92.52;102514.63;5020391;28;20111;-72
2023/03/02 03:30:12;;;;;;;39.00;21.63;;;;;;;1.63;92.63;102505.97;5020824;28;20419;-72
2023/03/02 03:32:37;;;;;;;;;;;;;;;1.63;92.66;102512.88;5020433;28;20095;-72
2023/03/02 03:35:07;;;;;;;34.30;18.55;;;;;;;1.63;92.64;102505.97;5020524;28;20281;-72
2023/03/02 03:37:33;;;;;;;29.67;16.63;;;;;;;1.63;92.77;102503.41;5019977;28;20312;-72
2023/03/02 03:39:58;;;;;;;32.80;18.23;;;;;;;1.64;92.90;102510.31;5020104;28;20041;-72
2023/03/02 03:42:24;;;;;;;30.08;17.90;;;;;;;1.66;92.91;102500.91;5019592;28;20119;-72
2023/03/02 03:44:49;;;;;;;36.53;20.05;;;;;;;1.65;92.81;102503.44;5020306;28;20046;-72
2023/03/02 03:47:15;;;;;;;39.80;21.27;;;;;;;1.62;92.52;102505.94;5019990;28;20270;-72
2023/03/02 03:49:40;;;;;;;33.63;18.77;;;;;;;1.58;92.73;102505.00;5020110;28;20113;-72
2023/03/02 03:52:06;;;;;;;39.55;22.50;;;;;;;1.52;92.54;102505.72;5019953;28;20269;-72
2023/03/02 03:54:31;;;;;;;40.25;21.63;;;;;;;1.48;92.57;102505.66;5019585;28;20042;-72
2023/03/02 03:56:57;;;;;;;37.22;20.33;;;;;;;1.48;93.08;102500.47;5019885;28;20052;-72
2023/03/02 03:59:24;;;;;;;40.15;21.52;;;;;;;1.47;93.28;102506.47;5019412;28;20337;-72
2023/03/02 04:01:56;;;;;;;32.78;17.92;;;;;;;1.47;93.30;102507.34;5020054;28;20313;-72
2023/03/02 04:04:27;;;;;;;31.23;17.88;;;;;;;1.49;93.38;102512.53;5019393;28;20042;-72
2023/03/02 04:06:53;;;;;;;37.95;20.75;;;;;;;1.49;93.42;102517.69;5020067;28;20041;-72
2023/03/02 04:09:19;;;;;;;39.45;20.38;;;;;;;1.47;93.27;102515.06;5019171;28;20053;-72
2023/03/02 04:11:47;;;;;;;34.33;19.52;;;;;;;1.48;93.41;102513.38;5019835;28;20030;-72
2023/03/02 04:14:13;;;;;;;34.60;18.13;;;;;;;1.48;93.46;102515.97;5019847;28;20041;-72
2023/03/02 04:16:39;;;;;;;38.80;20.70;;;;;;;1.46;93.17;102508.19;5019111;28;20041;-72
2023/03/02 04:19:08;;;;;;;34.50;18.73;;;;;;;1.44;93.31;102511.56;5019683;28;20049;-72
2023/03/02 04:21:45;;;;;;;36.22;18.60;;;;;;;1.44;93.32;102519.31;5018724;28;20034;-72
2023/03/02 04:24:12;;;;;;;38.13;21.05;;;;;;;1.40;93.14;102517.47;5019364;28;20037;-72
2023/03/02 04:26:39;;;;;;;37.40;20.63;;;;;;;1.36;93.27;102521.69;5018580;28;20038;-72
2023/03/02 04:29:05;;;;;;;38.70;20.85;;;;;;;1.35;93.53;102522.56;5019163;28;20034;-72
2023/03/02 04:31:31;;;;;;;41.50;21.13;;;;;;;1.35;93.67;102517.38;5018880;28;20055;-72
2023/03/02 04:33:57;;;;;;;36.75;19.58;;;;;;;1.37;93.84;102522.59;5019407;28;20080;-72
2023/03/02 04:36:23;;;;;;;37.25;19.67;;;;;;;1.37;93.78;102522.59;5018794;28;20030;-72
2023/03/02 04:38:49;;;;;;;35.85;19.27;;;;;;;1.38;93.78;102514.00;5019351;28;20049;-72
2023/03/02 04:41:15;;;;;;;37.22;20.10;;;;;;;1.38;93.72;102516.56;5018322;28;20034;-72
2023/03/02 04:43:41;;;;;;;39.50;19.70;;;;;;;1.36;93.81;102511.38;5018705;28;20057;-72
2023/03/02 04:46:08;;;;;;;36.65;19.73;;;;;;;1.37;94.05;102507.09;5019328;28;20264;-72
2023/03/02 04:48:33;;;;;;;35.15;18.88;;;;;;;1.36;93.74;102513.09;5018984;28;20611;-72
2023/03/02 04:50:58;;;;;;;31.83;16.92;;;;;;;1.37;93.90;102513.13;5019116;28;20034;-72
2023/03/02 04:53:24;;;;;;;33.25;18.25;;;;;;;1.39;94.07;102505.44;5018557;28;20069;-72
2023/03/02 04:55:49;;;;;;;33.08;18.25;;;;;;;1.40;94.03;102505.47;5018582;28;20034;-72
2023/03/02 04:58:14;;;;;;;29.52;16.95;;;;;;;1.41;93.98;102503.75;5018569;28;20042;-72
2023/03/02 05:00:40;;;;;;;29.38;17.25;;;;;;;1.43;93.89;102510.69;5018752;28;20049;-72
2023/03/02 05:03:06;;;;;;;29.98;17.10;;;;;;;1.44;94.04;102517.59;5018525;28;20115;-72
2023/03/02 05:05:31;;;;;;;33.25;17.75;;;;;;;1.42;93.75;102503.78;5018286;28;20033;-72
2023/03/02 05:07:57;;;;;;;34.35;18.65;;;;;;;1.40;93.58;102507.16;5018869;28;20041;-72
2023/03/02 05:10:23;;;;;;;31.60;18.23;;;;;;;1.37;93.31;102504.53;5017915;28;20033;-72
2023/03/02 05:13:01;;;;;;;31.45;16.63;;;;;;;1.38;93.80;102504.53;5019110;28;20048;-72
2023/03/02 05:15:38;;;;;;;29.23;16.13;;;;;;;1.39;93.94;102508.88;5018117;28;20100;-72
2023/03/02 05:18:05;;;;;;;29.75;16.88;;;;;;;1.41;93.86;102507.19;5018928;28;20041;-72
2023/03/02 05:20:31;;;;;;;30.75;17.45;;;;;;;1.43;93.86;102502.94;5018307;28;20042;-72
2023/03/02 05:23:06;;;;;;;30.45;17.00;;;;;;;1.44;94.07;102498.66;5018314;28;20061;-72
2023/03/02 05:25:34;;;;;;;30.83;16.58;;;;;;;1.42;93.77;102496.03;5017752;28;20113;-72
2023/03/02 05:28:00;;;;;;;26.90;16.98;;;;;;;1.41;93.62;102496.88;5018458;28;20048;-72
2023/03/02 05:30:26;;;;;;;30.70;17.35;;;;;;;1.39;93.63;102489.94;5017635;28;20069;-72
2023/03/02 05:32:52;;;;;;;30.08;16.85;;;;;;;1.38;93.67;102494.19;5018405;28;20033;-72
2023/03/02 05:35:21;;;;;;;33.20;17.17;;;;;;;1.38;93.66;102493.34;5018174;28;20069;-72
2023/03/02 05:37:47;;;;;;;32.42;16.88;;;;;;;1.38;93.72;102490.75;5018377;28;20045;-72
2023/03/02 05:40:17;;;;;;;31.67;16.48;;;;;;;1.36;93.81;102485.56;5017473;28;20046;-72
2023/03/02 05:42:42;;;;;;;36.60;19.48;;;;;;;1.31;93.53;102493.22;5033997;28;20061;-72
2023/03/02 05:45:18;;;;;;;31.73;18.10;;;;;;;1.29;93.53;102493.97;5037858;28;20041;-72
2023/03/02 05:47:44;;;;;;;33.40;17.15;;;;;;;1.28;93.57;102495.69;5037947;28;20335;-72
2023/03/02 05:50:10;;;;;;;28.52;16.15;;;;;;;1.30;93.73;102499.19;5037912;28;20033;-72
2023/03/02 05:52:35;;;;;;;36.78;19.13;;;;;;;1.28;93.65;102495.69;5037236;28;20108;-72
2023/03/02 05:55:00;;;;;;;27.38;14.63;;;;;;;1.29;93.70;102506.88;5037645;28;20037;-72
2023/03/02 05:57:26;;;;;;;34.95;19.10;;;;;;;1.28;93.90;102498.28;5037018;28;20037;-72
2023/03/02 05:59:52;;;;;;;31.60;17.23;;;;;;;1.27;93.82;102504.28;5037886;28;20037;-72
2023/03/02 06:02:17;;;;;;;24.92;15.75;;;;;;;1.28;93.80;102512.91;5037723;28;20225;-72
2023/03/02 06:04:43;;;;;;;28.98;16.15;;;;;;;1.25;93.76;102502.50;5037353;28;20041;-72
2023/03/02 06:07:12;;;;;;;24.35;14.02;;;;;;;1.27;93.73;102508.56;5037761;28;20045;-72
2023/03/02 06:09:39;;;;;;;29.33;16.38;;;;;;;1.25;93.76;102515.41;5037237;28;20037;-72
2023/03/02 06:12:06;;;;;;;26.90;16.75;;;;;;;1.21;93.31;102511.88;5037758;28;20318;-72
2023/03/02 06:14:31;;;;;;;27.55;16.05;;;;;;;1.21;93.65;102509.28;5037012;28;20076;-72
2023/03/02 06:16:57;;;;;;;33.95;17.58;;;;;;;1.20;93.73;102510.16;5037740;28;20041;-72
2023/03/02 06:19:22;;;;;;;28.60;16.75;;;;;;;1.20;93.78;102515.31;5037008;28;20253;-72
2023/03/02 06:21:47;;;;;;;28.75;14.80;;;;;;;1.22;93.90;102525.63;5037760;28;20064;-72
2023/03/02 06:24:13;;;;;;;29.33;16.75;;;;;;;1.22;93.72;102523.97;5037640;28;20209;-72
2023/03/02 06:26:38;;;;;;;29.30;17.05;;;;;;;1.19;93.45;102530.75;5036580;28;20337;-72
2023/03/02 06:29:04;;;;;;;26.75;15.55;;;;;;;1.20;93.84;102528.22;5037587;28;20156;-72
2023/03/02 06:31:30;;;;;;;28.33;16.45;;;;;;;1.19;93.56;102530.75;5037044;28;20033;-72
2023/03/02 06:33:56;;;;;;;34.70;18.73;;;;;;;1.13;93.44;102536.63;5037460;28;20051;-72
2023/03/02 06:36:21;;;;;;;28.30;16.20;;;;;;;1.10;93.60;102534.81;5036764;28;20042;-72
2023/03/02 06:38:47;;;;;;;30.83;17.92;;;;;;;1.11;93.81;102533.13;5037505;28;20037;-73
2023/03/02 06:41:12;;;;;;;28.60;15.68;;;;;;;1.10;93.88;102536.53;5037005;28;20079;-73
2023/03/02 06:43:38;;;;;;;29.92;17.30;;;;;;;1.08;93.79;102530.47;5037082;28;20049;-73
2023/03/02 06:46:03;;;;;;;30.00;16.08;;;;;;;1.10;94.12;102531.38;5037055;28;20033;-73
2023/03/02 06:48:29;;;;;;;28.50;15.98;;;;;;;1.11;94.15;102540.84;5036573;28;20355;-73
2023/03/02 06:50:54;;;;;;;33.83;17.30;;;;;;;1.11;94.04;102533.13;5037710;28;20056;-73
2023/03/02 06:53:22;;;;;;;25.67;15.10;;;;;;;1.11;94.12;102538.28;5040475;28;20037;-73
2023/03/02 06:55:47;;;;;;;24.60;15.00;;;;;;;1.17;94.33;102540.16;5040957;28;20037;-73
2023/03/02 06:58:12;;;;;;;26.35;14.40;;;;;;;1.18;94.39;102536.72;5040917;28;20241;-73
2023/03/02 07:00:39;;;;;;;24.63;14.63;;;;;;;1.19;94.17;102538.50;5040208;28;20325;-73
2023/03/02 07:03:04;;;;;;;26.35;14.88;;;;;;;1.19;93.86;102536.78;5040865;28;20092;-73
2023/03/02 07:05:31;;;;;;;26.13;14.57;;;;;;;1.21;94.34;102534.25;5040472;28;20559;-73
2023/03/02 07:07:57;;;;;;;22.73;13.43;;;;;;;1.24;94.47;102540.34;5040258;28;20037;-73
2023/03/02 07:10:23;;;;;;;20.55;12.63;;;;;;;1.28;94.50;102538.72;5039956;28;20041;-73
2023/03/02 07:12:48;;;;;;;31.88;15.80;;;;;;;1.27;94.27;102539.53;5040502;28;20105;-73
2023/03/02 07:15:15;;;;;;;26.10;14.80;;;;;;;1.26;94.17;102543.84;5040234;28;20352;-73
2023/03/02 07:17:42;;;;;;;30.90;17.50;;;;;;;1.27;94.09;102542.13;5040001;28;20040;-73
2023/03/02 07:20:09;;;;;;;29.95;16.58;;;;;;;1.23;93.75;102543.75;5040314;28;20090;-73
2023/03/02 07:22:35;;;;;;;26.38;15.13;;;;;;;1.23;93.71;102538.59;5039748;28;20240;-73
2023/03/02 07:25:00;;;;;;;26.13;14.23;;;;;;;1.22;94.20;102546.28;5040287;28;20049;-73
2023/03/02 07:27:25;;;;;;;30.95;16.52;;;;;;;1.22;94.25;102542.03;5039655;28;20061;-73
2023/03/02 07:29:51;;;;;;;30.55;17.10;;;;;;;1.22;94.32;102543.72;5040347;28;20052;-73
2023/03/02 07:32:16;;;;;;;34.70;18.30;;;;;;;1.17;93.85;102540.16;5040258;28;20507;-73
2023/03/02 07:34:42;;;;;;;34.75;18.52;;;;;;;1.14;94.10;102546.09;5040183;28;20048;-73
2023/03/02 07:37:07;;;;;;;29.52;16.85;;;;;;;1.12;94.16;102547.78;5040581;28;20045;-73
2023/03/02 07:39:32;;;;;;;32.55;17.80;;;;;;;1.10;94.27;102545.16;5039908;28;20041;-73
2023/03/02 07:42:03;;;;;;;29.55;16.52;;;;;;;1.10;94.51;102537.41;5040346;28;20044;-73
2023/03/02 07:44:29;;;;;;;34.30;17.15;;;;;;;1.08;94.37;102546.81;5039931;28;20404;-73
2023/03/02 07:46:55;;;;;;;33.28;17.55;;;;;;;1.08;94.43;102540.78;5040144;28;20100;-73
2023/03/02 07:49:20;;;;;;;33.45;17.17;;;;;;;1.09;94.72;102539.94;5039690;28;20036;-73
2023/03/02 07:51:46;;;;;;;33.60;18.58;;;;;;;1.09;94.72;102538.25;5040035;28;20093;-73
2023/03/02 07:54:11;;;;;;;31.52;17.00;;;;;;;1.12;94.89;102542.63;5040061;28;20232;-73
2023/03/02 07:56:36;;;;;;;33.90;18.88;;;;;;;1.12;95.08;102543.47;5039253;28;20040;-73
2023/03/02 07:59:02;;;;;;;40.65;20.35;;;;;;;1.14;94.98;102548.69;5040333;28;20083;-73
2023/03/02 08:01:27;;;;;;;33.65;18.38;;;;;;;1.18;95.34;102553.06;5034167;28;20083;-73
2023/03/02 08:03:53;;;;;;;24.02;14.07;;;;;;;1.22;95.29;102547.19;5038151;28;20233;-73
2023/03/02 08:06:18;;;;;;;37.40;18.45;;;;;;;1.24;95.27;102544.66;5034176;28;20041;-73
2023/03/02 08:08:44;;;;;;;33.97;17.75;;;;;;;1.27;95.18;102550.72;5037117;28;20041;-73
2023/03/02 08:11:12;;;;;;;34.30;17.83;;;;;;;1.27;95.20;102548.16;5039040;28;20056;-73
2023/03/02 08:13:37;;;;;;;30.83;16.05;;;;;;;1.29;95.26;102543.94;5039246;28;20037;-73
2023/03/02 08:16:05;;;;;;;27.70;15.25;;;;;;;1.30;95.14;102543.06;5032879;28;20049;-73
2023/03/02 08:18:31;;;;;;;30.48;16.73;;;;;;;1.34;95.32;102544.03;5039426;28;20352;-73
2023/03/02 08:20:57;;;;;;;38.97;20.10;;;;;;;1.33;95.39;102544.88;5038423;28;20041;-73
2023/03/02 08:23:23;;;;;;;30.42;17.08;;;;;;;1.34;95.36;102544.03;5036929;28;20032;-73
2023/03/02 08:25:48;;;;;;;40.90;20.95;;;;;;;1.31;95.26;102544.84;5036227;28;20044;-73
2023/03/02 08:28:13;;;;;;;38.22;20.15;;;;;;;1.30;95.29;102542.22;5035814;28;20037;-73
2023/03/02 08:30:39;;;;;;;38.30;19.67;;;;;;;1.28;95.07;102549.91;5035550;28;20038;-73
2023/03/02 08:33:04;;;;;;;30.77;16.92;;;;;;;1.29;95.54;102541.34;5035638;28;20336;-73
2023/03/02 08:35:30;;;;;;;40.25;19.83;;;;;;;1.33;95.30;102534.56;5035178;28;20352;-73
2023/03/02 08:37:55;;;;;;;35.72;18.58;;;;;;;1.36;95.70;102546.66;5039182;28;20222;-73
2023/03/02 08:40:21;;;;;;;32.33;17.65;;;;;;;1.37;95.37;102548.41;5037985;28;20042;-73
2023/03/02 08:42:48;;;;;;;38.53;18.77;;;;;;;1.40;95.38;102543.31;5038168;28;20043;-73
2023/03/02 08:45:14;;;;;;;41.38;20.75;;;;;;;1.38;95.13;102540.69;5034164;28;20147;-73
2023/03/02 08:47:39;;;;;;;38.85;20.52;;;;;;;1.38;94.84;102543.25;5034863;28;20048;-73
2023/03/02 08:50:05;;;;;;;40.03;19.85;;;;;;;1.43;95.16;102545.97;5038158;28;20107;-73
2023/03/02 08:52:33;;;;;;;34.17;18.33;;;;;;;1.46;95.28;102546.06;5038561;28;20036;-73
2023/03/02 08:54:58;;;;;;;39.47;18.97;;;;;;;1.48;94.85;102536.63;5038783;28;20037;-73
2023/03/02 08:57:24;;;;;;;35.97;19.27;;;;;;;1.48;94.62;102537.50;5032490;28;20094;-73
2023/03/02 08:59:51;;;;;;;38.63;18.05;;;;;;;1.46;93.80;102538.31;5039758;28;20056;-73
2023/03/02 09:02:16;;;;;;;32.50;18.35;;;;;;;1.46;93.71;102536.59;5036935;28;20272;-73
2023/03/02 09:04:42;;;;;;;37.35;19.00;;;;;;;1.46;93.93;102536.59;5037108;28;20036;-73
2023/03/02 09:07:08;;;;;;;37.92;18.95;;;;;;;1.48;93.55;102534.91;5038095;28;20097;-73
2023/03/02 09:09:33;;;;;;;33.13;17.33;;;;;;;1.50;93.20;102534.94;5036953;28;20349;-73
2023/03/02 09:11:58;;;;;;;33.63;17.95;;;;;;;1.52;93.21;102541.03;5036973;28;20045;-73
2023/03/02 09:14:24;;;;;;;30.50;16.25;;;;;;;1.52;92.84;102535.84;5036270;28;20402;-73
2023/03/02 09:16:51;;;;;;;31.90;16.75;;;;;;;1.54;92.81;102532.47;5036963;28;20037;-73
2023/03/02 09:19:17;;;;;;;38.03;18.38;;;;;;;1.58;92.76;102533.41;5036718;28;20372;-73
2023/03/02 09:21:42;;;;;;;34.47;17.15;;;;;;;1.62;93.13;102531.78;5036109;28;20033;-73
2023/03/02 09:24:07;;;;;;;35.67;16.20;;;;;;;1.65;92.88;102531.84;5036654;28;20045;-73
2023/03/02 09:26:33;;;;;;;29.50;16.42;;;;;;;1.68;92.69;102537.97;5035200;28;20044;-73
2023/03/02 09:28:59;;;;;;;29.05;15.45;;;;;;;1.71;92.03;102529.41;5034777;28;20033;-73
2023/03/02 09:31:25;;;;;;;32.70;16.20;;;;;;;1.72;91.96;102526.84;5034921;28;20040;-73
2023/03/02 09:33:50;;;;;;;28.85;15.93;;;;;;;1.75;91.56;102522.59;5035068;28;20045;-73
2023/03/02 09:36:21;;;;;;;27.52;15.57;;;;;;;1.78;91.42;102525.25;5037450;28;20080;-73
2023/03/02 09:38:47;;;;;;;29.83;15.75;;;;;;;1.80;91.48;102527.06;5050578;28;20029;-73
2023/03/02 09:41:19;;;;;;;29.23;15.90;;;;;;;1.85;91.55;102529.72;5057557;28;20100;-73
2023/03/02 09:44:15;;;;;;;32.65;16.67;;;;;;;1.87;91.20;102523.78;5057393;28;20119;-73
2023/03/02 09:46:48;;;;;;;28.75;14.75;;;;;;;1.89;90.03;102535.00;5057397;28;20053;-73
2023/03/02 09:49:40;;;;;;;30.02;14.13;;;;;;;1.91;90.11;102525.59;5058106;28;20033;-73
2023/03/02 09:52:34;;;;;;;26.05;14.32;;;;;;;1.94;89.92;102536.81;5057973;28;20328;-73
2023/03/02 09:55:18;;;;;;;25.98;14.18;;;;;;;1.98;89.85;102528.28;5057603;28;20078;-73
2023/03/02 09:57:45;;;;;;;27.17;14.63;;;;;;;2.00;89.61;102530.09;5037219;28;20060;-73
2023/03/02 10:00:13;;;;;;;27.83;15.68;;;;;;;2.03;89.32;102532.72;5036609;28;20105;-73
2023/03/02 10:02:52;;;;;;;27.15;15.52;;;;;;;2.05;89.63;102530.16;5036328;28;20036;-73
2023/03/02 10:05:22;;;;;;;34.67;15.13;;;;;;;2.09;89.88;102527.69;5034224;28;20144;-73
2023/03/02 10:07:48;;;;;;;32.80;14.65;;;;;;;2.13;89.80;102526.03;5036716;28;20274;-73
2023/03/02 10:10:35;;;;;;;25.73;13.35;;;;;;;2.16;89.61;102531.25;5035782;28;20030;-73
2023/03/02 10:13:21;;;;;;;30.13;14.30;;;;;;;2.21;89.67;102532.25;5035600;28;20512;-73
2023/03/02 10:16:12;;;;;;;27.40;14.57;;;;;;;2.23;89.61;102520.22;5037452;28;20072;-73
2023/03/02 10:18:47;;;;;;;28.73;13.43;;;;;;;2.27;89.27;102526.31;5033260;28;20352;-73
2023/03/02 10:21:28;;;;;;;34.97;13.85;;;;;;;2.30;89.67;102521.22;5035399;28;20026;-73
2023/03/02 10:24:15;;;;;;;33.03;14.07;;;;;;;2.32;89.82;102524.72;5035043;28;20044;-73
2023/03/02 10:26:52;;;;;;;24.77;13.18;;;;;;;2.35;89.46;102518.72;5024861;28;20061;-73
2023/03/02 10:29:26;;;;;;;25.20;13.70;;;;;;;2.40;89.52;102517.09;5040820;28;20276;-73
2023/03/02 10:32:03;;;;;;;23.10;13.48;;;;;;;2.42;89.53;102508.53;5040926;28;20355;-73
2023/03/02 10:34:29;;;;;;;27.65;14.23;;;;;;;2.46;89.64;102522.41;5025656;28;20037;-73
2023/03/02 10:36:54;;;;;;;23.95;14.27;;;;;;;2.51;89.92;102515.63;5041291;28;20036;-73
2023/03/02 10:39:20;;;;;;;28.38;14.38;;;;;;;2.53;89.55;102513.94;5040779;28;20637;-73
2023/03/02 10:41:52;;;;;;;26.10;14.48;;;;;;;2.56;90.25;102513.09;5040645;28;20032;-73
2023/03/02 10:44:26;;;;;;;22.67;13.57;;;;;;;2.62;90.87;102510.63;5040415;28;20253;-73
2023/03/02 10:46:52;;;;;;;24.27;13.35;;;;;;;2.63;90.68;102510.66;5040984;28;20096;-73
2023/03/02 10:49:27;;;;;;;29.75;14.15;;;;;;;2.67;90.88;102507.31;5040214;28;20333;-73
2023/03/02 10:51:57;;;;;;;25.85;13.95;;;;;;;2.71;90.30;102509.94;5040884;28;20096;-73
2023/03/02 10:54:24;;;;;;;24.50;13.60;;;;;;;2.74;90.53;102505.69;5024179;28;20040;-73
2023/03/02 10:56:52;;;;;;;24.85;12.82;;;;;;;2.79;90.48;102505.78;5038379;28;20041;-73
2023/03/02 10:59:23;;;;;;;27.15;14.77;;;;;;;2.80;89.57;102508.41;5040288;28;20041;-73
2023/03/02 11:02:11;;;;;;;24.50;13.20;;;;;;;2.84;89.67;102507.63;5040554;28;20075;-73
2023/03/02 11:04:36;;;;;;;24.42;13.07;;;;;;;2.87;90.21;102514.53;5038458;28;20477;-73
2023/03/02 11:07:13;;;;;;;22.85;13.57;;;;;;;2.93;90.58;102506.00;5040769;28;20468;-73
2023/03/02 11:09:38;;;;;;;23.52;12.35;;;;;;;2.96;90.35;102506.06;5039890;28;20033;-73
2023/03/02 11:12:11;;;;;;;27.17;14.15;;;;;;;3.00;90.05;102503.59;5039056;28;20045;-73
2023/03/02 11:14:37;;;;;;;25.52;12.70;;;;;;;3.05;90.39;102501.06;5039921;28;20101;-73
2023/03/02 11:17:38;;;;;;;26.45;13.52;;;;;;;3.10;91.02;102494.25;5040259;28;20244;-73
2023/03/02 11:20:05;;;;;;;21.33;12.85;;;;;;;3.17;90.67;102495.22;5025110;28;20126;-73
2023/03/02 11:22:51;;;;;;;23.70;12.63;;;;;;;3.20;90.17;102490.97;5039824;28;20123;-73
2023/03/02 11:25:29;;;;;;;24.58;13.60;;;;;;;3.24;89.83;102491.91;5039951;28;20232;-73